Time;durP1;ratioP1;P1;durP2;ratioP2;P2;SDS_P1;SDS_P2;PMS_P1;PMS_P2;Temp;Humidity;BMP_temperature;BMP_pressure;BME280_temperature;BME280_humidity;BME280_pressure;Samples;Min_cycle;Max_cycle;Signal;HPM_P1;HPM_P2
2023/07/04 00:00:58;;;;;;;;;3.00;2.67;;;;;27.61;34.90;101376.28;5058647;28;45507;-84
2023/07/04 00:03:24;;;;;;;;;2.67;1.00;;;;;27.61;35.26;101375.47;5058569;28;45341;-85
2023/07/04 00:05:50;;;;;;;;;2.67;2.00;;;;;27.59;35.33;101375.66;5058431;28;45300;-85
2023/07/04 00:08:15;;;;;;;;;2.00;2.00;;;;;27.61;35.44;101380.81;5040173;28;47085;-85
2023/07/04 00:10:42;;;;;;;;;2.67;1.00;;;;;27.63;35.19;101381.44;5076537;28;45230;-85
2023/07/04 00:13:07;;;;;;;;;3.00;3.00;;;;;27.60;35.80;101371.16;5078825;28;45344;-84
2023/07/04 00:15:33;;;;;;;;;1.33;1.33;;;;;27.62;35.44;101375.25;5078657;28;45228;-85
2023/07/04 00:17:58;;;;;;;;;3.33;3.00;;;;;27.62;35.37;101380.59;5078535;28;46168;-84
2023/07/04 00:20:25;;;;;;;;;3.00;3.00;;;;;27.61;35.46;101373.59;5078261;28;45301;-84
2023/07/04 00:22:51;;;;;;;;;1.33;1.33;;;;;27.63;35.10;101376.91;5078725;28;45431;-84
2023/07/04 00:25:17;;;;;;;;;5.00;2.33;;;;;27.62;35.05;101379.78;5078355;28;45468;-85
2023/07/04 00:27:43;;;;;;;;;3.00;2.00;;;;;27.60;34.92;101376.50;5078673;28;46463;-85
2023/07/04 00:30:09;;;;;;;;;3.67;3.00;;;;;27.60;35.14;101376.50;5078093;28;45417;-85
2023/07/04 00:32:35;;;;;;;;;2.33;2.00;;;;;27.61;35.45;101386.97;5078238;28;45317;-85
2023/07/04 00:35:02;;;;;;;;;2.33;1.33;;;;;27.62;35.16;101382.44;5078263;28;45354;-85
2023/07/04 00:37:29;;;;;;;;;3.00;2.00;;;;;27.62;35.39;101380.59;5078190;28;45305;-84
2023/07/04 00:39:54;;;;;;;;;3.00;2.00;;;;;27.61;35.18;101381.63;5077896;28;45479;-85
2023/07/04 00:42:21;;;;;;;;;6.33;2.00;;;;;27.61;34.95;101380.81;5078389;28;45371;-84
2023/07/04 00:44:54;;;;;;;;;3.33;3.33;;;;;27.60;35.35;101373.81;5078025;28;45360;-85
2023/07/04 00:47:32;;;;;;;;;2.67;2.67;;;;;27.63;35.55;101376.09;5077893;28;46269;-85
2023/07/04 00:50:06;;;;;;;;;4.00;2.67;;;;;27.59;35.46;101370.31;5078072;28;45435;-85
2023/07/04 00:52:34;;;;;;;;;3.00;3.00;;;;;27.63;34.94;101373.41;5058315;28;45678;-85
2023/07/04 00:55:05;;;;;;;;;4.00;2.00;;;;;27.62;35.17;101367.25;5057267;28;45484;-84
2023/07/04 00:57:33;;;;;;;;;2.00;2.00;;;;;27.63;35.68;101368.06;5057447;28;47153;-84
2023/07/04 01:00:10;;;;;;;;;3.33;1.33;;;;;27.61;35.14;101359.44;5057353;28;45363;-85
2023/07/04 01:02:37;;;;;;;;;3.33;2.00;;;;;27.59;35.21;101356.13;5057598;28;45460;-85
2023/07/04 01:05:04;;;;;;;;;2.00;2.00;;;;;27.63;35.82;101363.56;5057457;28;45553;-85
2023/07/04 01:07:41;;;;;;;;;1.33;1.33;;;;;27.61;34.93;101359.44;5057440;28;46102;-85
2023/07/04 01:10:18;;;;;;;;;4.00;4.00;;;;;27.61;35.53;101362.91;5070684;28;45430;-85
2023/07/04 01:12:46;;;;;;;;;2.00;2.00;;;;;27.61;34.98;101354.91;5077683;28;45285;-85
2023/07/04 01:15:12;;;;;;;;;4.00;2.00;;;;;27.63;35.08;101358.22;5077681;28;45235;-85
2023/07/04 01:17:38;;;;;;;;;3.00;3.00;;;;;27.61;35.47;101346.88;5077546;28;45254;-85
2023/07/04 01:20:09;;;;;;;;;2.00;2.00;;;;;27.63;35.82;101347.53;5077274;27;45240;-84
2023/07/04 01:23:03;;;;;;;;;3.00;2.00;;;;;27.64;35.68;101356.34;5077823;28;45416;-84
2023/07/04 01:25:37;;;;;;;;;1.67;1.33;;;;;27.63;35.81;101352.03;5077354;28;45389;-84
2023/07/04 01:28:04;;;;;;;;;5.33;3.00;;;;;27.62;35.24;101353.06;5077332;28;46333;-84
2023/07/04 01:30:33;;;;;;;;;4.00;3.00;;;;;27.62;35.00;101358.41;5077387;28;45356;-85
2023/07/04 01:33:00;;;;;;;;;2.67;2.00;;;;;27.58;35.54;101352.66;5077466;28;45331;-85
2023/07/04 01:35:27;;;;;;;;;3.33;3.00;;;;;27.60;35.06;101358.63;5077487;28;45375;-85
2023/07/04 01:37:53;;;;;;;;;4.00;3.67;;;;;27.60;35.14;101350.59;5076933;28;46394;-85
2023/07/04 01:40:19;;;;;;;;;2.67;2.67;;;;;27.62;35.41;101361.06;5077271;28;45319;-84
2023/07/04 01:42:44;;;;;;;;;2.33;2.33;;;;;27.59;35.20;101361.47;5077043;28;45356;-85
2023/07/04 01:45:10;;;;;;;;;2.00;2.00;;;;;27.62;35.49;101361.06;5076492;28;45430;-84
2023/07/04 01:47:36;;;;;;;;;2.00;1.00;;;;;27.62;35.11;101358.41;5077125;28;46199;-84
2023/07/04 01:50:03;;;;;;;;;1.67;1.67;;;;;27.60;35.64;101352.44;5077147;28;45355;-85
2023/07/04 01:52:29;;;;;;;;;1.67;1.33;;;;;27.62;35.03;101356.56;5057393;28;45401;-85
2023/07/04 01:54:55;;;;;;;;;1.00;1.00;;;;;27.62;35.60;101353.06;5056582;28;45423;-84
2023/07/04 01:57:20;;;;;;;;;3.00;3.00;;;;;27.62;35.10;101347.69;5056629;28;45424;-84
2023/07/04 01:59:46;;;;;;;;;3.00;2.00;;;;;27.60;35.50;101345.25;5056616;28;45343;-84
2023/07/04 02:02:11;;;;;;;;;3.00;2.33;;;;;27.63;35.52;101344.00;5038556;28;45479;-85
2023/07/04 02:04:37;;;;;;;;;4.00;3.00;;;;;27.63;35.88;101350.19;5056655;28;45337;-84
2023/07/04 02:07:02;;;;;;;;;3.00;3.00;;;;;27.63;35.74;101349.34;5056176;28;45984;-84
2023/07/04 02:09:28;;;;;;;;;2.33;2.00;;;;;27.59;35.47;101338.25;5064952;28;45507;-84
2023/07/04 02:11:53;;;;;;;;;1.00;1.00;;;;;27.63;35.66;101349.34;5058905;28;45431;-84
2023/07/04 02:14:18;;;;;;;;;2.00;2.00;;;;;27.59;35.87;101342.75;5076752;28;45451;-84
2023/07/04 02:16:44;;;;;;;;;2.67;2.67;;;;;27.63;35.02;101352.03;5076747;28;45320;-84
2023/07/04 02:19:10;;;;;;;;;2.67;2.00;;;;;27.61;35.11;101351.44;5076516;28;45417;-83
2023/07/04 02:21:36;;;;;;;;;4.00;1.00;;;;;27.61;35.67;101354.09;5076568;28;45483;-84
2023/07/04 02:24:02;;;;;;;;;3.00;1.67;;;;;27.61;35.77;101349.56;5076395;28;45566;-84
2023/07/04 02:26:27;;;;;;;;;3.00;3.00;;;;;27.60;35.31;101341.75;5076533;28;47103;-84
2023/07/04 02:28:52;;;;;;;;;1.67;1.67;;;;;27.55;35.20;101334.34;5076429;28;45560;-84
2023/07/04 02:31:19;;;;;;;;;6.00;2.33;;;;;27.61;35.28;101346.88;5076634;28;45442;-84
2023/07/04 02:33:44;;;;;;;;;3.00;1.33;;;;;27.60;35.24;101342.56;5076049;28;45574;-84
2023/07/04 02:36:11;;;;;;;;;3.00;1.33;;;;;27.62;35.24;101339.69;5075906;28;46039;-84
2023/07/04 02:38:40;;;;;;;;;2.33;1.67;;;;;27.61;35.31;101336.19;5076555;28;45498;-84
2023/07/04 02:41:06;;;;;;;;;2.00;2.00;;;;;27.59;35.64;101324.06;5077156;28;45253;-84
2023/07/04 02:43:31;;;;;;;;;2.33;1.00;;;;;27.61;35.68;101330.03;5076630;28;45411;-84
2023/07/04 02:45:56;;;;;;;;;3.00;3.00;;;;;27.61;35.94;101330.03;5075688;28;46995;-84
2023/07/04 02:48:24;;;;;;;;;2.33;2.33;;;;;27.54;35.57;101319.34;5076309;28;45369;-84
2023/07/04 02:50:49;;;;;;;;;2.00;2.00;;;;;27.61;35.18;101332.72;5070389;28;45526;-84
2023/07/04 02:53:20;;;;;;;;;2.67;2.00;;;;;27.60;35.17;101325.72;5055848;28;45450;-84
2023/07/04 02:55:46;;;;;;;;;2.33;1.00;;;;;27.58;35.81;101322.44;5055596;28;46225;-84
2023/07/04 02:58:11;;;;;;;;;4.67;3.00;;;;;27.57;35.28;101313.59;5055578;28;45440;-84
2023/07/04 03:00:37;;;;;;;;;2.33;2.33;;;;;27.60;35.56;101318.53;5054385;28;45347;-84
2023/07/04 03:03:02;;;;;;;;;1.33;1.00;;;;;27.60;35.67;101312.34;5055821;28;45595;-84
2023/07/04 03:05:27;;;;;;;;;1.00;1.00;;;;;27.61;35.85;101316.69;5055191;28;45311;-84
2023/07/04 03:07:53;;;;;;;;;2.67;1.00;;;;;27.62;35.21;101310.28;5055816;28;45328;-84
2023/07/04 03:10:19;;;;;;;;;3.00;3.00;;;;;27.61;35.96;101303.31;5071052;28;45281;-84
2023/07/04 03:12:44;;;;;;;;;3.33;2.00;;;;;27.61;35.32;101304.13;5075924;28;45367;-84
2023/07/04 03:15:10;;;;;;;;;2.00;2.00;;;;;27.58;35.44;101293.03;5076047;28;45953;-85
2023/07/04 03:17:36;;;;;;;;;2.33;2.33;;;;;27.61;35.35;101301.44;5075734;28;45375;-84
2023/07/04 03:20:06;;;;;;;;;2.67;2.67;;;;;27.60;35.35;101299.81;5075256;28;45389;-84
2023/07/04 03:22:31;;;;;;;;;2.00;2.00;;;;;27.61;36.05;101300.66;5076081;28;45283;-84
2023/07/04 03:24:56;;;;;;;;;2.00;2.00;;;;;27.60;35.59;101293.63;5075375;28;45698;-84
2023/07/04 03:27:22;;;;;;;;;2.67;2.67;;;;;27.57;35.42;101289.53;5075403;28;56417;-84
2023/07/04 03:29:47;;;;;;;;;4.67;3.00;;;;;27.60;35.28;101294.47;5075918;28;45281;-84
2023/07/04 03:32:12;;;;;;;;;3.00;2.00;;;;;27.61;35.71;101300.66;5075716;28;45248;-84
2023/07/04 03:34:38;;;;;;;;;4.00;2.00;;;;;27.57;35.60;101292.22;5075076;28;46856;-84
2023/07/04 03:37:03;;;;;;;;;1.33;1.33;;;;;27.60;35.67;101299.81;5075105;28;45178;-85
2023/07/04 03:39:29;;;;;;;;;3.00;1.00;;;;;27.58;36.03;101295.72;5075840;28;45220;-84
2023/07/04 03:41:54;;;;;;;;;1.67;1.67;;;;;27.60;35.76;101294.47;5057590;28;45316;-84
2023/07/04 03:44:19;;;;;;;;;3.00;3.00;;;;;27.58;36.00;101288.50;5075313;28;45989;-84
2023/07/04 03:46:44;;;;;;;;;3.00;2.00;;;;;27.59;35.61;101292.00;5075357;28;46341;-85
2023/07/04 03:49:10;;;;;;;;;2.33;2.33;;;;;27.61;35.40;101292.63;5075455;28;45391;-84
2023/07/04 03:51:35;;;;;;;;;2.00;2.00;;;;;27.59;35.63;101287.47;5063521;28;45354;-85
2023/07/04 03:54:00;;;;;;;;;3.67;2.00;;;;;27.60;35.56;101293.63;5055080;28;46362;-84
2023/07/04 03:56:26;;;;;;;;;2.33;2.00;;;;;27.58;35.57;101282.34;5055007;28;45340;-84
2023/07/04 03:58:51;;;;;;;;;4.67;2.00;;;;;27.59;35.90;101287.47;5055163;28;45500;-84
2023/07/04 04:01:16;;;;;;;;;2.00;2.00;;;;;27.58;35.51;101280.50;5055226;28;45371;-84
2023/07/04 04:03:42;;;;;;;;;2.00;1.00;;;;;27.55;36.06;101275.56;5054442;28;45460;-85
2023/07/04 04:06:08;;;;;;;;;2.00;2.00;;;;;27.57;35.88;101278.84;5054971;28;45404;-84
2023/07/04 04:08:34;;;;;;;;;2.00;2.00;;;;;27.59;35.62;101276.78;5059300;28;45321;-84
2023/07/04 04:11:00;;;;;;;;;2.33;2.00;;;;;27.59;35.69;101281.28;5060478;28;45313;-84
2023/07/04 04:13:26;;;;;;;;;3.67;3.67;;;;;27.59;35.68;101278.63;5078545;28;45285;-84
2023/07/04 04:15:52;;;;;;;;;2.00;2.00;;;;;27.60;35.53;101282.94;5078390;28;45329;-84
2023/07/04 04:18:18;;;;;;;;;3.00;2.00;;;;;27.58;35.92;101280.50;5078405;28;45324;-84
2023/07/04 04:20:43;;;;;;;;;2.33;2.33;;;;;27.61;35.89;101279.25;5057372;28;45662;-84
2023/07/04 04:23:09;;;;;;;;;4.67;3.67;;;;;27.61;35.31;101285.41;5058272;28;45319;-84
2023/07/04 04:25:38;;;;;;;;;2.00;2.00;;;;;27.59;35.49;101275.94;5058013;28;45365;-84
2023/07/04 04:28:04;;;;;;;;;3.67;2.33;;;;;27.61;36.03;101281.94;5058134;28;45453;-84
2023/07/04 04:30:29;;;;;;;;;4.33;3.33;;;;;27.62;35.97;101289.72;5057977;28;45458;-84
2023/07/04 04:32:55;;;;;;;;;4.00;2.67;;;;;27.62;35.56;101286.22;5057491;28;46317;-84
2023/07/04 04:35:21;;;;;;;;;4.00;3.67;;;;;27.63;35.72;101294.06;5057933;28;45325;-84
2023/07/04 04:37:46;;;;;;;;;1.67;1.67;;;;;27.65;35.74;101293.00;5058136;28;45353;-84
2023/07/04 04:40:12;;;;;;;;;4.33;3.33;;;;;27.66;36.03;101302.69;5058109;28;45313;-84
2023/07/04 04:42:39;;;;;;;;;3.67;2.33;;;;;27.60;35.91;101283.78;5058348;28;47032;-84
2023/07/04 04:45:08;;;;;;;;;1.67;1.67;;;;;27.65;36.14;101293.84;5039742;28;45484;-84
2023/07/04 04:47:33;;;;;;;;;3.67;3.00;;;;;27.67;36.08;101296.28;5057611;28;45372;-84
2023/07/04 04:50:01;;;;;;;;;3.00;3.00;;;;;27.67;35.32;101293.63;5057816;28;45518;-84
2023/07/04 04:52:29;;;;;;;;;2.00;2.00;;;;;27.68;35.71;101288.09;5057770;28;46365;-84
2023/07/04 04:54:55;;;;;;;;;5.00;3.00;;;;;27.67;35.41;101283.75;5057736;28;45389;-84
2023/07/04 04:57:21;;;;;;;;;2.00;2.00;;;;;27.68;35.74;101281.91;5057551;28;45449;-84
2023/07/04 04:59:47;;;;;;;;;3.00;3.00;;;;;27.71;35.70;101293.00;5057616;28;45520;-84
2023/07/04 05:02:13;;;;;;;;;3.00;3.00;;;;;27.70;35.89;101290.53;5039125;28;45377;-84
2023/07/04 05:04:38;;;;;;;;;2.00;2.00;;;;;27.74;35.71;101302.44;5057297;28;45690;-84
2023/07/04 05:07:04;;;;;;;;;3.00;2.33;;;;;27.74;36.03;101305.13;5057696;28;45762;-85
2023/07/04 05:09:32;;;;;;;;;1.67;0.00;;;;;27.77;35.20;101311.91;5054292;28;45556;-84
2023/07/04 05:11:57;;;;;;;;;4.67;2.00;;;;;27.74;35.18;101303.28;5057431;28;46165;-84
2023/07/04 05:14:23;;;;;;;;;4.67;3.33;;;;;27.78;35.46;101294.84;5057691;28;45372;-83
2023/07/04 05:16:48;;;;;;;;;1.67;1.00;;;;;27.77;36.00;101299.38;5057374;28;45349;-84
2023/07/04 05:19:13;;;;;;;;;3.67;3.00;;;;;27.80;35.18;101307.00;5056192;28;45380;-83
2023/07/04 05:21:39;;;;;;;;;4.00;2.00;;;;;27.81;35.73;101305.97;5059468;28;47936;-84
2023/07/04 05:24:04;;;;;;;;;2.00;2.00;;;;;27.81;35.73;101297.97;5077964;28;45261;-83
2023/07/04 05:26:30;;;;;;;;;2.33;2.33;;;;;27.82;35.46;101294.25;5078732;28;45395;-84
2023/07/04 05:28:58;;;;;;;;;2.00;2.00;;;;;27.83;35.14;101295.06;5077722;28;45447;-84
2023/07/04 05:31:26;;;;;;;;;2.00;2.00;;;;;27.82;35.78;101298.75;5077379;28;45496;-84
2023/07/04 05:33:53;;;;;;;;;2.00;2.00;;;;;27.80;35.57;101292.81;5077640;28;45369;-83
2023/07/04 05:36:22;;;;;;;;;3.67;2.67;;;;;27.80;35.52;101296.31;5077801;28;45355;-84
2023/07/04 05:38:49;;;;;;;;;5.67;4.67;;;;;27.82;35.99;101304.94;5077677;28;45348;-84
2023/07/04 05:41:16;;;;;;;;;2.33;2.33;;;;;27.82;35.96;101304.09;5059130;28;47534;-84
2023/07/04 05:43:42;;;;;;;;;3.00;3.00;;;;;27.82;35.27;101304.09;5076823;28;45360;-83
2023/07/04 05:46:10;;;;;;;;;3.00;3.00;;;;;27.81;35.74;101300.63;5077332;28;45358;-83
2023/07/04 05:48:36;;;;;;;;;1.33;1.33;;;;;27.81;35.92;101302.47;5077456;28;45363;-84
2023/07/04 05:51:05;;;;;;;;;5.67;3.33;;;;;27.79;35.82;101299.97;5076732;28;46095;-84
2023/07/04 05:53:33;;;;;;;;;3.00;3.00;;;;;27.82;35.37;101301.44;5077022;28;45447;-84
2023/07/04 05:56:05;;;;;;;;;3.00;3.00;;;;;27.83;35.33;101306.59;5077198;28;45391;-84
2023/07/04 05:58:30;;;;;;;;;3.67;2.00;;;;;27.81;35.72;101303.31;5076863;28;45383;-84
2023/07/04 06:00:59;;;;;;;;;6.00;4.00;;;;;27.84;35.73;101302.88;5076757;28;46326;-81
2023/07/04 06:03:24;;;;;;;;;2.00;2.00;;;;;27.83;35.69;101298.56;5076827;28;45356;-79
2023/07/04 06:05:49;;;;;;;;;4.33;3.00;;;;;27.82;35.36;101296.09;5076866;28;45497;-80
2023/07/04 06:08:15;;;;;;;;;3.00;1.00;;;;;27.85;35.64;101298.34;5076903;28;45472;-79
2023/07/04 06:10:40;;;;;;;;;2.67;1.33;;;;;27.89;35.25;101306.78;5076518;28;45410;-80
2023/07/04 06:13:05;;;;;;;;;2.67;1.67;;;;;27.92;35.44;101299.16;5076366;28;45403;-80
2023/07/04 06:15:31;;;;;;;;;3.67;2.67;;;;;27.93;35.38;101302.66;5076863;28;45403;-82
2023/07/04 06:17:57;;;;;;;;;4.00;3.00;;;;;27.93;35.30;101292.78;5076799;28;45336;-78
2023/07/04 06:20:22;;;;;;;;;4.33;4.33;;;;;27.87;34.60;101293.59;5076227;28;45948;-80
2023/07/04 06:22:48;;;;;;;;;6.33;5.00;;;;;27.81;34.58;101307.81;5076477;28;45472;-80
2023/07/04 06:25:14;;;;;;;;;6.33;4.00;;;;;27.76;34.77;101302.25;5076504;28;45367;-79
2023/07/04 06:27:41;;;;;;;;;6.33;4.67;;;;;27.69;35.10;101308.41;5076342;28;45430;-83
2023/07/04 06:30:08;;;;;;;;;4.33;3.00;;;;;27.67;35.36;101315.84;5076106;28;45408;-77
2023/07/04 06:32:34;;;;;;;;;5.33;5.00;;;;;27.62;35.06;101313.78;5076561;28;45966;-80
2023/07/04 06:34:59;;;;;;;;;4.67;4.33;;;;;27.55;34.88;101309.47;5076343;28;45253;-79
2023/07/04 06:37:24;;;;;;;;;5.00;4.67;;;;;27.49;35.09;101301.25;5075035;28;45530;-78
2023/07/04 06:39:50;;;;;;;;;5.00;4.00;;;;;27.45;34.71;101315.25;5060301;28;46043;-75
2023/07/04 06:42:15;;;;;;;;;4.67;4.00;;;;;27.39;34.60;101315.03;5073193;28;45301;-77
2023/07/04 06:44:44;;;;;;;;;6.33;4.00;;;;;27.37;34.89;101317.09;5073126;28;45277;-74
2023/07/04 06:47:10;;;;;;;;;9.33;4.00;;;;;27.36;34.69;101310.09;5070183;28;45439;-74
2023/07/04 06:49:35;;;;;;;;;7.00;4.67;;;;;27.30;35.31;101308.22;5071533;28;46264;-74
2023/07/04 06:52:01;;;;;;;;;8.00;4.00;;;;;27.24;35.14;101298.38;5070232;28;45834;-74
2023/07/04 06:54:26;;;;;;;;;4.00;4.00;;;;;27.26;35.37;101301.66;5071503;28;45810;-74
2023/07/04 06:56:51;;;;;;;;;7.00;3.33;;;;;27.27;35.13;101306.78;5071665;28;45376;-74
2023/07/04 06:59:16;;;;;;;;;7.33;4.33;;;;;27.27;35.19;101319.34;5072015;28;45150;-74
2023/07/04 07:01:42;;;;;;;;;7.00;4.67;;;;;27.27;34.94;101322.81;5071457;28;50971;-74
2023/07/04 07:04:07;;;;;;;;;3.00;3.00;;;;;27.24;34.75;101317.91;5072010;28;45333;-74
2023/07/04 07:06:33;;;;;;;;;3.00;3.00;;;;;27.21;34.86;101321.00;5071666;28;45431;-74
2023/07/04 07:08:58;;;;;;;;;8.00;6.00;;;;;27.20;35.04;101318.50;5070740;28;46860;-75
2023/07/04 07:11:24;;;;;;;;;5.33;4.00;;;;;27.17;35.49;101320.56;5071211;28;45891;-74
2023/07/04 07:13:50;;;;;;;;;6.33;4.00;;;;;27.12;34.99;101317.66;5054109;28;45331;-75
2023/07/04 07:16:17;;;;;;;;;5.33;3.67;;;;;27.10;35.03;101317.03;5072268;28;45513;-74
2023/07/04 07:18:44;;;;;;;;;4.67;3.00;;;;;27.07;35.67;101328.13;5070546;28;45644;-74
2023/07/04 07:21:12;;;;;;;;;5.67;4.67;;;;;27.00;35.57;101305.94;5071352;28;45690;-74
2023/07/04 07:23:38;;;;;;;;;9.00;7.75;;;;;27.06;35.26;101326.50;5071208;28;46435;-74
2023/07/04 07:26:05;;;;;;;;;7.33;6.67;;;;;27.04;35.72;101316.00;5070779;28;45449;-74
2023/07/04 07:28:33;;;;;;;;;8.67;7.33;;;;;27.06;35.01;101321.16;5071457;28;47266;-74
2023/07/04 07:31:12;;;;;;;;;7.33;6.00;;;;;27.03;35.27;101325.06;5052967;28;45467;-74
2023/07/04 07:33:41;;;;;;;;;9.00;6.00;;;;;27.04;35.44;101324.00;5052352;28;45649;-74
2023/07/04 07:36:16;;;;;;;;;8.00;5.00;;;;;27.03;35.52;101321.56;5071191;28;45632;-74
2023/07/04 07:38:41;;;;;;;;;9.33;6.00;;;;;27.04;35.51;101315.16;5062456;28;45378;-72
2023/07/04 07:41:08;;;;;;;;;8.33;5.00;;;;;27.05;35.37;101325.66;5070189;28;45597;-75
2023/07/04 07:43:36;;;;;;;;;13.50;10.75;;;;;27.05;35.61;101323.00;5074531;28;45462;-74
2023/07/04 07:46:01;;;;;;;;;33.00;30.50;;;;;27.03;35.84;101313.53;5074266;28;45535;-75
2023/07/04 07:48:27;;;;;;;;;19.50;15.50;;;;;27.06;35.89;101302.47;5073862;28;46340;-75
2023/07/04 07:50:53;;;;;;;;;13.50;11.25;;;;;27.06;35.30;101311.28;5074833;28;45505;-75
2023/07/04 07:53:18;;;;;;;;;12.50;10.75;;;;;27.06;35.28;101308.59;5072752;27;45510;-75
2023/07/04 07:55:43;;;;;;;;;9.75;9.50;;;;;27.05;35.46;101308.81;5074608;28;45380;-75
2023/07/04 07:58:09;;;;;;;;;8.25;8.00;;;;;27.07;35.73;101306.75;5074609;28;46294;-75
2023/07/04 08:00:34;;;;;;;;;9.33;7.00;;;;;27.06;35.82;101313.94;5073989;28;45331;-75
2023/07/04 08:03:00;;;;;;;;;10.00;5.00;;;;;27.05;35.26;101317.66;5074489;28;45401;-75
2023/07/04 08:05:25;;;;;;;;;8.00;5.33;;;;;27.02;35.16;101317.22;5074048;28;45641;-77
2023/07/04 08:07:51;;;;;;;;;8.33;6.00;;;;;26.96;35.49;101306.34;5074220;28;47024;-77
2023/07/04 08:10:17;;;;;;;;;7.33;5.67;;;;;26.95;36.02;101303.88;5074076;28;45442;-76
2023/07/04 08:12:42;;;;;;;;;5.67;5.00;;;;;26.89;35.79;101299.34;5073720;28;45729;-77
2023/07/04 08:15:08;;;;;;;;;6.33;5.67;;;;;26.79;35.67;101294.38;5074130;28;45620;-75
2023/07/04 08:17:33;;;;;;;;;6.00;6.00;;;;;26.79;35.39;101305.91;5073957;28;46887;-76
2023/07/04 08:19:58;;;;;;;;;6.00;6.00;;;;;26.79;35.96;101303.22;5056236;28;45644;-81
2023/07/04 08:22:24;;;;;;;;;5.25;4.25;;;;;26.78;36.18;101296.22;5073220;28;45512;-81
2023/07/04 08:24:49;;;;;;;;;4.00;4.00;;;;;26.79;35.63;101291.72;5073503;28;45295;-82
2023/07/04 08:27:14;;;;;;;;;4.33;4.00;;;;;26.75;35.57;101291.31;5073545;28;45414;-82
2023/07/04 08:29:40;;;;;;;;;6.33;4.33;;;;;26.77;35.80;101307.13;5073949;28;45581;-81
2023/07/04 08:32:06;;;;;;;;;3.00;3.00;;;;;26.74;36.02;101301.16;5074494;28;45913;-80
2023/07/04 08:34:31;;;;;;;;;5.00;5.00;;;;;26.75;35.80;101304.66;5074145;28;45202;-81
2023/07/04 08:36:57;;;;;;;;;7.33;6.00;;;;;26.75;35.76;101296.66;5074081;28;46133;-81
2023/07/04 08:39:23;;;;;;;;;5.67;5.00;;;;;26.71;35.90;101292.72;5073680;28;45458;-81
2023/07/04 08:41:59;;;;;;;;;5.67;5.00;;;;;26.71;36.20;101292.72;5073560;28;45494;-81
2023/07/04 08:44:33;;;;;;;;;6.67;5.00;;;;;26.69;36.55;101290.28;5071695;28;45560;-77
2023/07/04 08:46:59;;;;;;;;;5.33;5.00;;;;;26.71;35.93;101287.41;5070354;28;46397;-74
2023/07/04 08:49:46;;;;;;;;;8.33;5.33;;;;;26.79;36.35;101287.22;5073521;28;45878;-75
2023/07/04 08:52:14;;;;;;;;;8.33;4.00;;;;;26.87;35.98;101285.38;5074845;27;45507;-76
2023/07/04 08:54:39;;;;;;;;;7.00;4.33;;;;;26.91;35.66;101282.09;5072588;28;45597;-75
2023/07/04 08:57:17;;;;;;;;;6.00;4.00;;;;;26.99;35.92;101278.41;5072772;28;47066;-78
2023/07/04 08:59:44;;;;;;;;;4.33;4.00;;;;;27.01;35.67;101278.22;5065688;28;45258;-82
2023/07/04 09:02:43;;;;;;;;;6.00;4.00;;;;;27.01;36.25;101284.34;5073702;28;45272;-78
2023/07/04 09:05:29;;;;;;;;;6.67;4.00;;;;;27.05;35.90;101282.13;5069120;28;45463;-79
2023/07/04 09:08:04;;;;;;;;;5.00;4.00;;;;;27.09;35.42;101279.88;5066879;28;47283;-77
2023/07/04 09:10:35;;;;;;;;;5.67;5.67;;;;;27.13;35.08;101283.78;5055038;28;45516;-77
2023/07/04 09:13:05;;;;;;;;;6.00;3.33;;;;;27.11;35.01;101269.78;5073547;28;45378;-77
2023/07/04 09:15:35;;;;;;;;;5.67;4.00;;;;;27.16;34.96;101276.22;5073192;28;45361;-76
2023/07/04 09:18:26;;;;;;;;;5.00;4.00;;;;;27.20;35.73;101271.25;5073207;28;45460;-79
2023/07/04 09:20:59;;;;;;;;;10.00;6.00;;;;;27.18;35.05;101262.63;5046922;28;45365;-78
2023/07/04 09:23:25;;;;;;;;;4.33;4.33;;;;;27.29;35.12;101272.72;5052743;28;45723;-77
2023/07/04 09:25:55;;;;;;;;;7.33;5.33;;;;;27.35;35.03;101276.38;5053295;28;45580;-81
2023/07/04 09:28:21;;;;;;;;;5.33;4.33;;;;;27.37;34.79;101281.53;5052612;28;47257;-74
2023/07/04 09:30:46;;;;;;;;;6.00;6.00;;;;;27.33;34.56;101266.94;5052819;28;45408;-74
2023/07/04 09:33:14;;;;;;;;;6.00;2.67;;;;;27.32;34.82;101267.97;5053024;28;45391;-73
2023/07/04 09:35:40;;;;;;;;;4.00;4.00;;;;;27.26;34.72;101265.09;5052911;28;45289;-75
2023/07/04 09:38:05;;;;;;;;;8.33;5.00;;;;;27.25;34.68;101263.44;5052166;28;46129;-76
2023/07/04 09:40:42;;;;;;;;;7.00;5.00;;;;;27.27;35.28;101265.94;5052449;28;45316;-76
2023/07/04 09:43:10;;;;;;;;;6.67;5.33;;;;;27.27;35.33;101264.06;5053016;28;45325;-79
2023/07/04 09:45:36;;;;;;;;;8.00;5.33;;;;;27.26;34.90;101270.44;5052041;28;45439;-82
2023/07/04 09:48:04;;;;;;;;;6.33;4.00;;;;;27.27;34.69;101269.41;5052728;28;46052;-78
2023/07/04 09:50:32;;;;;;;;;6.00;4.00;;;;;27.27;34.76;101266.72;5052214;28;46684;-79
2023/07/04 09:53:09;;;;;;;;;6.67;5.00;;;;;27.29;34.56;101272.72;5052585;28;45876;-76
2023/07/04 09:55:40;;;;;;;;;8.67;4.00;;;;;27.25;34.33;101260.78;5049651;28;45535;-77
2023/07/04 09:58:22;;;;;;;;;4.67;4.33;;;;;27.28;34.12;101279.06;5052388;28;46549;-77
2023/07/04 10:01:24;;;;;;;;;5.00;4.33;;;;;27.27;34.49;101266.72;5051059;28;45562;-90
2023/07/04 10:04:05;;;;;;;;;4.33;3.33;;;;;27.29;34.43;101267.38;5051506;28;45439;-76
2023/07/04 10:06:32;;;;;;;;;6.00;3.67;;;;;27.28;34.48;101267.56;5051550;28;45408;-76
2023/07/04 10:08:57;;;;;;;;;4.67;4.67;;;;;27.25;33.76;101250.09;5052810;28;46012;-74
2023/07/04 10:11:25;;;;;;;;;6.67;5.00;;;;;27.29;34.54;101251.34;5052282;28;45478;-74
2023/07/04 10:14:03;;;;;;;;;7.33;5.00;;;;;27.30;34.60;101252.13;5052430;28;45404;-74
2023/07/04 10:16:28;;;;;;;;;6.67;5.00;;;;;27.28;34.29;101244.34;5052181;28;45539;-74
2023/07/04 10:19:12;;;;;;;;;5.00;4.67;;;;;27.20;33.80;101241.03;5052939;28;45379;-75
2023/07/04 10:21:50;;;;;;;;;6.33;3.00;;;;;27.10;33.82;101234.25;5071754;27;45539;-75
2023/07/04 10:24:21;;;;;;;;;6.00;4.33;;;;;27.06;34.29;101233.81;5073377;27;45675;-81
2023/07/04 10:26:51;;;;;;;;;3.00;3.00;;;;;27.02;34.28;101229.09;5072808;27;45281;-79
2023/07/04 10:29:30;;;;;;;;;7.00;5.00;;;;;26.99;34.58;101226.84;5073042;27;45465;-81
2023/07/04 10:31:59;;;;;;;;;6.67;3.67;;;;;26.95;34.36;101224.59;5072329;27;45352;-81
2023/07/04 10:34:26;;;;;;;;;4.33;3.00;;;;;26.91;34.18;101226.03;5072282;27;45316;-80
2023/07/04 10:36:53;;;;;;;;;8.00;4.67;;;;;26.88;34.00;101223.75;5072845;27;45218;-81
2023/07/04 10:39:19;;;;;;;;;6.00;3.00;;;;;26.90;34.33;101223.56;5072526;27;46730;-80
2023/07/04 10:41:44;;;;;;;;;6.00;4.33;;;;;26.90;34.26;101215.56;5071093;27;45473;-78
2023/07/04 10:44:14;;;;;;;;;2.00;2.00;;;;;26.91;34.21;101210.00;5072171;27;45592;-77
2023/07/04 10:46:55;;;;;;;;;4.00;4.00;;;;;26.91;33.87;101206.50;5071803;27;45334;-78
2023/07/04 10:49:24;;;;;;;;;5.00;5.00;;;;;26.91;34.01;101203.84;5071556;27;45715;-78
2023/07/04 10:51:57;;;;;;;;;4.00;3.67;;;;;26.90;34.18;101191.53;5071133;27;45415;-81
2023/07/04 10:54:22;;;;;;;;;4.67;3.67;;;;;26.90;34.17;101183.53;5076270;27;45422;-77
2023/07/04 10:56:58;;;;;;;;;6.67;5.67;;;;;26.91;34.09;101185.16;5079692;27;45517;-75
2023/07/04 10:59:33;;;;;;;;;5.00;4.00;;;;;26.88;34.68;101166.91;5081386;27;45379;-75
2023/07/04 11:02:25;;;;;;;;;4.00;4.00;;;;;26.87;34.62;101175.91;5074504;27;45509;-77
2023/07/04 11:04:54;;;;;;;;;3.67;3.67;;;;;26.85;34.20;101178.81;5057846;27;45536;-80
2023/07/04 11:07:23;;;;;;;;;7.00;4.67;;;;;26.80;34.57;101167.91;5072399;27;45617;-79
2023/07/04 11:09:54;;;;;;;;;5.00;5.00;;;;;26.78;34.90;101164.66;5080032;27;45509;-72
2023/07/04 11:12:26;;;;;;;;;6.67;4.00;;;;;26.77;34.50;101160.31;5071563;27;45786;-75
2023/07/04 11:15:00;;;;;;;;;8.00;4.00;;;;;26.78;35.13;101172.66;5070558;27;45449;-74
2023/07/04 11:17:30;;;;;;;;;5.00;3.00;;;;;26.84;34.65;101169.16;5072205;27;45494;-74
2023/07/04 11:20:11;;;;;;;;;8.33;5.00;;;;;26.90;34.59;101160.31;5074940;27;45674;-73
2023/07/04 11:22:44;;;;;;;;;5.67;5.00;;;;;27.01;34.51;101158.06;5074570;28;45308;-74
2023/07/04 11:25:25;;;;;;;;;5.00;5.00;;;;;27.10;35.23;101159.47;5075376;28;45361;-73
2023/07/04 11:28:15;;;;;;;;;7.33;4.67;;;;;27.18;35.22;101153.94;5055982;28;45554;-73